createdAt,value
2022-12-14T00:00:46.786Z,-3.00
2022-12-14T00:03:24.237Z,-3.03
2022-12-14T00:05:56.507Z,-3.04
2022-12-14T00:08:30.107Z,-3.05
2022-12-14T00:11:03.416Z,-3.22
2022-12-14T00:13:37.770Z,-3.32
2022-12-14T00:16:13.251Z,-3.33
2022-12-14T00:18:48.939Z,-3.39
2022-12-14T00:27:21.355Z,-3.53
2022-12-14T00:33:14.171Z,-3.47
2022-12-14T00:35:54.210Z,-3.54
2022-12-14T00:38:33.730Z,-3.53
2022-12-14T00:41:07.405Z,-3.59
2022-12-14T00:43:40.633Z,-3.63
2022-12-14T00:46:13.983Z,-3.64
2022-12-14T00:48:47.810Z,-3.63
2022-12-14T00:51:25.447Z,-3.79
2022-12-14T00:53:58.811Z,-3.86
2022-12-14T00:56:32.332Z,-3.95
2022-12-14T00:59:05.556Z,-3.96
2022-12-14T01:01:39.479Z,-3.84
2022-12-14T01:04:21.690Z,-3.97
2022-12-14T01:06:57.625Z,-4.04
2022-12-14T01:09:31.173Z,-4.13
2022-12-14T01:12:04.363Z,-4.10
2022-12-14T01:14:37.835Z,-4.12
2022-12-14T01:17:11.089Z,-4.17
2022-12-14T01:19:44.559Z,-4.14
2022-12-14T01:22:19.483Z,-4.18
2022-12-14T01:24:52.862Z,-4.15
2022-12-14T01:27:29.083Z,-4.04
2022-12-14T01:30:02.378Z,-3.93
2022-12-14T01:32:37.998Z,-3.88
2022-12-14T01:35:11.998Z,-3.87
2022-12-14T01:37:49.155Z,-3.83
2022-12-14T01:40:26.274Z,-3.76
2022-12-14T01:43:01.557Z,-3.72
2022-12-14T01:45:37.149Z,-3.68
2022-12-14T01:48:14.602Z,-3.79
2022-12-14T01:50:48.781Z,-3.88
2022-12-14T01:56:08.243Z,-3.94
2022-12-14T01:58:41.718Z,-4.12
2022-12-14T02:01:16.772Z,-4.17
2022-12-14T02:03:53.130Z,-4.29
2022-12-14T02:06:30.740Z,-4.40
2022-12-14T02:09:04.294Z,-4.42
2022-12-14T02:11:40.814Z,-4.41
2022-12-14T02:14:13.948Z,-4.46
2022-12-14T02:16:47.560Z,-4.50
2022-12-14T02:19:21.335Z,-4.49
2022-12-14T02:22:10.397Z,-4.45
2022-12-14T02:28:02.380Z,-4.24
2022-12-14T02:30:38.538Z,-4.40
2022-12-14T02:33:18.345Z,-4.39
2022-12-14T02:35:57.904Z,-4.37
2022-12-14T02:38:40.830Z,-4.35
2022-12-14T02:41:17.552Z,-4.33
2022-12-14T02:43:56.697Z,-4.29
2022-12-14T02:46:33.348Z,-4.32
2022-12-14T02:49:09.858Z,-4.35
2022-12-14T02:51:48.897Z,-4.40
2022-12-14T02:54:27.849Z,-4.45
2022-12-14T02:57:05.218Z,-4.50
2022-12-14T02:59:39.017Z,-4.54
2022-12-14T03:02:14.873Z,-4.60
2022-12-14T03:04:51.677Z,-4.57
2022-12-14T03:07:39.492Z,-4.61
2022-12-14T03:10:20.888Z,-4.70
2022-12-14T03:12:57.839Z,-4.77
2022-12-14T03:15:34.469Z,-4.79
2022-12-14T03:20:56.847Z,-4.46
2022-12-14T03:23:32.989Z,-4.50
2022-12-14T03:26:10.479Z,-4.43
2022-12-14T03:28:49.327Z,-4.54
2022-12-14T03:31:42.643Z,-4.60
2022-12-14T03:34:27.228Z,-4.61
2022-12-14T03:37:03.250Z,-4.61
2022-12-14T03:39:38.749Z,-4.70
2022-12-14T03:42:15.765Z,-4.75
2022-12-14T03:44:52.560Z,-4.72
2022-12-14T03:47:36.403Z,-4.71
2022-12-14T03:50:12.708Z,-4.72
2022-12-14T03:52:51.780Z,-4.70
2022-12-14T03:55:31.657Z,-4.65
2022-12-14T03:58:39.527Z,-4.63
2022-12-14T04:01:16.709Z,-4.55
2022-12-14T04:03:56.029Z,-4.53
2022-12-14T04:06:42.649Z,-4.52
2022-12-14T04:09:30.864Z,-4.46
2022-12-14T04:12:26.795Z,-4.56
2022-12-14T04:15:26.396Z,-4.57
2022-12-14T04:18:38.634Z,-4.65
2022-12-14T04:24:21.709Z,-4.62
2022-12-14T04:26:58.490Z,-4.81
2022-12-14T04:29:54.238Z,-4.83
2022-12-14T04:32:48.582Z,-4.83
2022-12-14T04:35:24.836Z,-4.86
2022-12-14T04:38:01.704Z,-4.88
2022-12-14T04:40:46.547Z,-4.94
2022-12-14T04:51:19.348Z,-4.75
2022-12-14T04:53:59.987Z,-4.88
2022-12-14T04:56:35.974Z,-4.86
2022-12-14T04:59:12.443Z,-4.94
2022-12-14T05:01:52.180Z,-4.94
2022-12-14T05:05:01.231Z,-4.98
2022-12-14T05:07:48.971Z,-4.93
2022-12-14T05:10:29.743Z,-4.94
2022-12-14T05:13:16.378Z,-4.91
2022-12-14T05:15:53.964Z,-4.82
2022-12-14T05:18:27.304Z,-4.75
2022-12-14T05:21:00.194Z,-4.70
2022-12-14T05:23:33.049Z,-4.64
2022-12-14T05:26:06.188Z,-4.66
2022-12-14T05:28:39.053Z,-4.67
2022-12-14T05:31:12.194Z,-4.73
2022-12-14T05:33:45.147Z,-4.78
2022-12-14T05:36:19.799Z,-4.76
2022-12-14T05:38:52.557Z,-4.71
2022-12-14T05:41:25.440Z,-4.66
2022-12-14T05:43:58.356Z,-4.57
2022-12-14T05:46:31.310Z,-4.51
2022-12-14T05:49:04.470Z,-4.40
2022-12-14T05:51:37.274Z,-4.34
2022-12-14T05:54:10.137Z,-4.33
2022-12-14T05:56:46.914Z,-4.36
2022-12-14T05:59:20.926Z,-4.35
2022-12-14T06:02:05.862Z,-4.28
2022-12-14T06:04:39.980Z,-4.18
2022-12-14T06:07:15.363Z,-4.11
2022-12-14T06:09:48.716Z,-4.15
2022-12-14T06:12:21.600Z,-4.19
2022-12-14T06:14:54.493Z,-4.16
2022-12-14T06:17:27.598Z,-4.11
2022-12-14T06:20:00.752Z,-4.03
2022-12-14T06:22:34.105Z,-3.97
2022-12-14T06:25:07.989Z,-3.90
2022-12-14T06:27:40.909Z,-3.86
2022-12-14T06:30:16.400Z,-3.87
2022-12-14T06:32:49.211Z,-3.85
2022-12-14T06:35:22.270Z,-3.82
2022-12-14T06:37:55.218Z,-3.81
2022-12-14T06:40:31.083Z,-3.77
2022-12-14T06:43:04.375Z,-3.73
2022-12-14T06:45:37.528Z,-3.72
2022-12-14T06:48:10.418Z,-3.78
2022-12-14T06:50:43.383Z,-3.78
2022-12-14T06:53:16.390Z,-3.81
2022-12-14T06:55:49.393Z,-3.82
2022-12-14T06:58:22.377Z,-3.85
2022-12-14T07:00:55.280Z,-3.88
2022-12-14T07:03:28.500Z,-3.88
2022-12-14T07:06:02.888Z,-3.94
2022-12-14T07:08:39.039Z,-3.90
2022-12-14T07:11:14.724Z,-3.85
2022-12-14T07:13:48.844Z,-3.81
2022-12-14T07:16:24.037Z,-3.76
2022-12-14T07:18:57.907Z,-3.70
2022-12-14T07:21:30.796Z,-3.60
2022-12-14T07:24:03.948Z,-3.53
2022-12-14T07:26:38.013Z,-3.46
2022-12-14T07:29:12.204Z,-3.59
2022-12-14T07:31:49.458Z,-3.35
2022-12-14T07:34:20.112Z,-3.23
2022-12-14T07:36:54.117Z,-3.16
2022-12-14T07:39:28.382Z,-3.08
2022-12-14T07:42:01.238Z,-3.03
2022-12-14T07:44:35.114Z,-3.03
2022-12-14T07:47:11.435Z,-2.97
2022-12-14T07:49:43.495Z,-2.92
2022-12-14T07:52:16.956Z,-2.97
2022-12-14T07:54:49.918Z,-3.02
2022-12-14T08:00:05.786Z,-2.92
2022-12-14T08:02:40.360Z,-3.07
2022-12-14T08:05:13.644Z,-3.16
2022-12-14T08:07:46.574Z,-3.20
2022-12-14T08:10:19.727Z,-3.16
2022-12-14T08:12:53.378Z,-3.07
2022-12-14T08:15:26.334Z,-3.04
2022-12-14T08:17:59.273Z,-3.16
2022-12-14T08:20:32.403Z,-3.09
2022-12-14T08:25:40.119Z,-3.03
2022-12-14T08:28:13.130Z,-3.24
2022-12-14T08:30:46.047Z,-3.23
2022-12-14T08:33:19.222Z,-3.12
2022-12-14T08:38:35.017Z,-3.10
2022-12-14T08:41:09.940Z,-3.22
2022-12-14T08:43:43.848Z,-3.22
2022-12-14T08:46:16.925Z,-3.24
2022-12-14T08:48:52.490Z,-3.22
2022-12-14T08:51:27.030Z,-3.15
2022-12-14T08:53:59.919Z,-3.11
2022-12-14T08:56:33.117Z,-3.10
2022-12-14T08:59:07.735Z,-3.07
2022-12-14T09:01:40.871Z,-3.05
2022-12-14T09:04:13.912Z,-3.12
2022-12-14T09:06:46.836Z,-3.19
2022-12-14T09:09:19.744Z,-3.23
2022-12-14T09:11:52.707Z,-3.28
2022-12-14T09:14:25.783Z,-3.43
2022-12-14T09:16:59.138Z,-3.54
2022-12-14T09:19:32.440Z,-3.60
2022-12-14T09:22:18.643Z,-3.67
2022-12-14T09:24:53.572Z,-3.68
2022-12-14T09:27:27.539Z,-3.67
2022-12-14T09:30:00.692Z,-3.57
2022-12-14T09:32:50.614Z,-3.49
2022-12-14T09:35:23.023Z,-3.42
2022-12-14T09:37:55.917Z,-3.36
2022-12-14T09:40:32.153Z,-3.32
2022-12-14T09:43:09.600Z,-3.33
2022-12-14T09:45:45.451Z,-3.39
2022-12-14T09:48:22.455Z,-3.46
2022-12-14T09:50:56.927Z,-3.51
2022-12-14T09:53:30.646Z,-3.58
2022-12-14T09:56:04.445Z,-3.61
2022-12-14T09:58:39.338Z,-3.61
2022-12-14T10:01:18.695Z,-3.62
2022-12-14T10:03:56.173Z,-3.66
2022-12-14T10:06:31.655Z,-3.70
2022-12-14T10:09:09.842Z,-3.64
2022-12-14T10:11:47.009Z,-3.56
2022-12-14T10:14:25.941Z,-3.55
2022-12-14T10:17:02.134Z,-3.53
2022-12-14T10:19:40.726Z,-3.51
2022-12-14T10:22:17.154Z,-3.49
2022-12-14T10:24:55.327Z,-3.47
2022-12-14T10:27:47.701Z,-3.46
2022-12-14T10:30:08.852Z,-3.44
2022-12-14T10:32:45.326Z,-3.36
2022-12-14T10:35:21.136Z,-3.33
2022-12-14T10:37:57.868Z,-3.29
2022-12-14T10:40:35.690Z,-3.28
2022-12-14T10:43:16.421Z,-3.25
2022-12-14T10:45:52.850Z,-3.23
2022-12-14T10:48:45.308Z,-3.22
2022-12-14T10:51:22.521Z,-3.19
2022-12-14T10:53:58.567Z,-3.19
2022-12-14T10:56:34.236Z,-3.19
2022-12-14T10:59:35.083Z,-3.16
2022-12-14T11:02:08.295Z,-3.16
2022-12-14T11:04:45.628Z,-3.17
2022-12-14T11:07:20.760Z,-3.15
2022-12-14T11:09:54.122Z,-3.12
2022-12-14T11:12:28.855Z,-3.14
2022-12-14T11:15:04.105Z,-3.13
2022-12-14T11:17:40.520Z,-3.12
2022-12-14T11:20:26.443Z,-3.12
2022-12-14T11:23:01.844Z,-3.14
2022-12-14T11:25:41.935Z,-3.16
2022-12-14T11:28:31.275Z,-3.25
2022-12-14T11:31:05.283Z,-3.32
2022-12-14T11:33:41.607Z,-3.38
2022-12-14T11:36:25.648Z,-3.38
2022-12-14T11:39:00.126Z,-3.43
2022-12-14T11:44:26.946Z,-3.45
2022-12-14T11:47:05.236Z,-3.50
2022-12-14T11:49:45.691Z,-3.46
2022-12-14T11:52:20.799Z,-3.46
2022-12-14T11:55:12.466Z,-3.48
2022-12-14T11:57:50.475Z,-3.45
2022-12-14T12:00:29.340Z,-3.43
2022-12-14T12:03:06.751Z,-3.46
2022-12-14T12:05:45.073Z,-3.51
2022-12-14T12:08:25.365Z,-3.51
2022-12-14T12:11:02.282Z,-3.49
2022-12-14T12:13:39.209Z,-3.49
2022-12-14T12:16:18.657Z,-3.48
2022-12-14T12:18:54.529Z,-3.52
2022-12-14T12:21:31.851Z,-3.50
2022-12-14T12:24:08.589Z,-3.52
2022-12-14T12:26:49.876Z,-3.51
2022-12-14T12:29:23.497Z,-3.58
2022-12-14T12:32:00.375Z,-3.56
2022-12-14T12:34:36.485Z,-3.62
2022-12-14T12:37:28.050Z,-3.72
2022-12-14T12:42:35.914Z,-3.77
2022-12-14T12:45:14.043Z,-3.97
2022-12-14T12:47:50.425Z,-4.03
2022-12-14T12:50:26.055Z,-4.12
2022-12-14T12:53:03.956Z,-4.20
2022-12-14T12:55:39.608Z,-4.27
2022-12-14T12:58:16.934Z,-4.36
2022-12-14T13:00:55.684Z,-4.42
2022-12-14T13:03:32.557Z,-4.58
2022-12-14T13:06:10.233Z,-4.58
2022-12-14T13:08:45.193Z,-4.67
2022-12-14T13:11:27.013Z,-4.74
2022-12-14T13:14:00.660Z,-4.82
2022-12-14T13:16:36.407Z,-4.85
2022-12-14T13:19:48.137Z,-4.93
2022-12-14T13:21:51.325Z,-4.98
2022-12-14T13:24:25.168Z,-5.01
2022-12-14T13:27:29.536Z,-5.06
2022-12-14T13:30:16.479Z,-5.11
2022-12-14T13:32:57.379Z,-5.15
2022-12-14T13:38:35.775Z,-5.12
2022-12-14T13:41:17.567Z,-5.23
2022-12-14T13:44:04.930Z,-5.28
2022-12-14T13:46:38.222Z,-5.30
2022-12-14T13:49:17.952Z,-5.29
2022-12-14T13:51:52.976Z,-5.29
2022-12-14T13:54:31.291Z,-5.40
2022-12-14T13:57:08.046Z,-5.24
2022-12-14T13:59:43.482Z,-5.20
2022-12-14T14:02:42.282Z,-5.11
2022-12-14T14:05:41.109Z,-5.06
2022-12-14T14:08:36.052Z,-4.99
2022-12-14T14:11:41.308Z,-4.92
2022-12-14T14:14:23.094Z,-4.84
2022-12-14T14:17:00.747Z,-4.78
2022-12-14T14:19:33.893Z,-4.71
2022-12-14T14:22:23.446Z,-4.66
2022-12-14T14:24:59.402Z,-4.63
2022-12-14T14:27:39.706Z,-4.57
2022-12-14T14:30:28.947Z,-4.54
2022-12-14T14:33:36.311Z,-4.52
2022-12-14T14:35:39.067Z,-4.53
2022-12-14T14:38:22.548Z,-4.52
2022-12-14T14:41:16.196Z,-4.50
2022-12-14T14:43:35.934Z,-4.48
2022-12-14T14:46:13.597Z,-4.43
2022-12-14T14:48:53.477Z,-4.40
2022-12-14T14:51:31.278Z,-4.34
2022-12-14T14:55:11.026Z,-4.28
2022-12-14T14:57:07.705Z,-4.22
2022-12-14T14:59:51.101Z,-4.22
2022-12-14T15:02:31.489Z,-4.19
2022-12-14T15:07:43.665Z,-4.12
2022-12-14T15:10:22.861Z,-4.09
2022-12-14T15:13:08.799Z,-4.10
2022-12-14T15:18:27.458Z,-3.96
2022-12-14T15:21:04.306Z,-4.07
2022-12-14T15:23:40.214Z,-4.04
2022-12-14T15:26:17.584Z,-4.04
2022-12-14T15:28:52.946Z,-4.00
2022-12-14T15:31:32.980Z,-3.97
2022-12-14T15:34:06.110Z,-3.97
2022-12-14T15:36:42.228Z,-3.92
2022-12-14T15:39:33.888Z,-3.94
2022-12-14T15:42:12.395Z,-3.92
2022-12-14T15:44:53.018Z,-3.96
2022-12-14T15:47:29.472Z,-3.91
2022-12-14T15:50:19.736Z,-3.94
2022-12-14T15:55:41.810Z,-3.78
2022-12-14T15:58:18.868Z,-4.13
2022-12-14T16:00:54.183Z,-3.87
2022-12-14T16:03:31.177Z,-3.85
2022-12-14T16:06:06.062Z,-3.85
2022-12-14T16:08:41.309Z,-3.84
2022-12-14T16:17:08.046Z,-3.79
2022-12-14T16:19:58.497Z,-3.92
2022-12-14T16:22:25.506Z,-3.94
2022-12-14T16:25:17.144Z,-3.97
2022-12-14T16:27:52.204Z,-4.00
2022-12-14T16:30:31.760Z,-4.01
2022-12-14T16:33:15.200Z,-4.05
2022-12-14T16:35:51.540Z,-4.05
2022-12-14T16:38:25.595Z,-4.07
2022-12-14T16:41:01.172Z,-4.09
2022-12-14T16:43:37.270Z,-4.10
2022-12-14T16:46:18.832Z,-4.11
2022-12-14T16:49:20.875Z,-4.11
2022-12-14T16:52:07.711Z,-4.13
2022-12-14T16:54:38.671Z,-4.16
2022-12-14T16:57:23.411Z,-4.20
2022-12-14T17:00:00.757Z,-4.16
2022-12-14T17:02:38.511Z,-4.14
2022-12-14T17:05:17.818Z,-4.07
2022-12-14T17:07:51.348Z,-4.05
2022-12-14T17:10:26.974Z,-4.01
2022-12-14T17:13:01.787Z,-3.97
2022-12-14T17:15:36.585Z,-3.93
2022-12-14T17:18:11.296Z,-3.89
2022-12-14T17:20:44.161Z,-3.88
2022-12-14T17:23:19.273Z,-3.85
2022-12-14T17:25:52.278Z,-3.82
2022-12-14T17:28:28.967Z,-3.82
2022-12-14T17:31:03.763Z,-3.81
2022-12-14T17:33:38.361Z,-3.82
2022-12-14T17:36:11.665Z,-3.79
2022-12-14T17:38:44.835Z,-3.73
2022-12-14T17:41:21.314Z,-3.76
2022-12-14T17:43:57.258Z,-3.77
2022-12-14T17:46:30.769Z,-3.81
2022-12-14T17:49:06.607Z,-3.78
2022-12-14T17:51:42.284Z,-3.76
2022-12-14T17:54:22.439Z,-3.78
2022-12-14T17:56:54.259Z,-3.79
2022-12-14T17:59:28.168Z,-3.77
2022-12-14T18:02:01.215Z,-3.77
2022-12-14T18:07:49.703Z,-3.78
2022-12-14T18:16:17.249Z,-3.91
2022-12-14T18:18:50.213Z,-4.04
2022-12-14T18:21:26.411Z,-4.06
2022-12-14T18:24:56.104Z,-4.10
2022-12-14T18:28:08.265Z,-4.16
2022-12-14T18:30:49.851Z,-4.28
2022-12-14T18:33:25.419Z,-4.35
2022-12-14T18:35:59.462Z,-4.42
2022-12-14T18:38:32.826Z,-4.50
2022-12-14T18:41:06.585Z,-4.52
2022-12-14T18:43:44.132Z,-4.60
2022-12-14T18:46:17.711Z,-4.67
2022-12-14T18:48:51.307Z,-4.71
2022-12-14T18:51:26.999Z,-4.73
2022-12-14T18:54:02.369Z,-4.68
2022-12-14T18:56:35.296Z,-4.62
2022-12-14T18:59:08.303Z,-4.58
2022-12-14T19:01:42.464Z,-4.52
2022-12-14T19:04:15.717Z,-4.47
2022-12-14T19:06:53.786Z,-4.46
2022-12-14T19:09:26.771Z,-4.45
2022-12-14T19:11:59.827Z,-4.40
2022-12-14T19:14:33.708Z,-4.37
2022-12-14T19:17:08.378Z,-4.35
2022-12-14T19:19:44.662Z,-4.32
2022-12-14T19:22:18.019Z,-4.35
2022-12-14T19:24:52.668Z,-4.39
2022-12-14T19:27:58.912Z,-4.42
2022-12-14T19:30:02.248Z,-4.43
2022-12-14T19:32:41.325Z,-4.46
2022-12-14T19:35:22.084Z,-4.51
2022-12-14T19:37:56.677Z,-4.55
2022-12-14T19:40:30.775Z,-4.57
2022-12-14T19:43:06.021Z,-4.58
2022-12-14T19:45:41.294Z,-4.60
2022-12-14T19:48:20.539Z,-4.60
2022-12-14T19:50:53.810Z,-4.60
2022-12-14T19:53:36.583Z,-4.57
2022-12-14T19:56:13.601Z,-4.57
2022-12-14T19:58:47.803Z,-4.56
2022-12-14T20:01:23.146Z,-4.55
2022-12-14T20:03:56.431Z,-4.54
2022-12-14T20:06:31.827Z,-4.56
2022-12-14T20:09:07.102Z,-4.52
2022-12-14T20:11:42.629Z,-4.48
2022-12-14T20:14:16.324Z,-4.50
2022-12-14T20:16:52.240Z,-4.46
2022-12-14T20:19:25.701Z,-4.45
2022-12-14T20:22:00.203Z,-4.44
2022-12-14T20:24:33.087Z,-4.41
2022-12-14T20:27:06.087Z,-4.41
2022-12-14T20:29:49.058Z,-4.38
2022-12-14T20:32:21.887Z,-4.38
2022-12-14T20:34:54.759Z,-4.38
2022-12-14T20:37:27.754Z,-4.37
2022-12-14T20:40:03.319Z,-4.41
2022-12-14T20:42:36.320Z,-4.46
2022-12-14T20:45:10.996Z,-4.52
2022-12-14T20:47:46.961Z,-4.58
2022-12-14T20:50:20.019Z,-4.66
2022-12-14T20:52:52.880Z,-4.74
2022-12-14T20:55:25.734Z,-4.85
2022-12-14T20:57:58.827Z,-4.95
2022-12-14T21:00:31.819Z,-5.01
2022-12-14T21:03:05.285Z,-5.04
2022-12-14T21:05:42.787Z,-5.05
2022-12-14T21:08:16.358Z,-5.06
2022-12-14T21:10:49.251Z,-5.06
2022-12-14T21:13:22.188Z,-5.10
2022-12-14T21:15:55.162Z,-5.12
2022-12-14T21:18:28.067Z,-5.11
2022-12-14T21:21:04.359Z,-5.11
2022-12-14T21:23:37.482Z,-5.17
2022-12-14T21:26:10.659Z,-5.23
2022-12-14T21:28:43.578Z,-5.26
2022-12-14T21:31:16.792Z,-5.28
2022-12-14T21:33:51.475Z,-5.32
2022-12-14T21:36:24.310Z,-5.34
2022-12-14T21:38:59.973Z,-5.33
2022-12-14T21:41:50.982Z,-5.38
2022-12-14T21:44:23.894Z,-5.40
2022-12-14T21:46:56.847Z,-5.45
2022-12-14T21:49:29.987Z,-5.49
2022-12-14T21:52:07.206Z,-5.51
2022-12-14T21:54:40.303Z,-5.52
2022-12-14T21:57:34.133Z,-5.52
2022-12-14T22:00:10.005Z,-5.50
2022-12-14T22:02:45.809Z,-5.55
2022-12-14T22:05:19.189Z,-5.54
2022-12-14T22:07:52.737Z,-5.52
2022-12-14T22:10:25.623Z,-5.54
2022-12-14T22:12:58.569Z,-5.55
2022-12-14T22:15:31.617Z,-5.55
2022-12-14T22:18:04.672Z,-5.55
2022-12-14T22:20:37.557Z,-5.55
2022-12-14T22:23:10.472Z,-5.52
2022-12-14T22:25:50.758Z,-5.50
2022-12-14T22:28:23.627Z,-5.47
2022-12-14T22:30:56.484Z,-5.42
2022-12-14T22:33:30.649Z,-5.33
2022-12-14T22:36:03.844Z,-5.23
2022-12-14T22:38:36.701Z,-5.14
2022-12-14T22:41:10.370Z,-5.06
2022-12-14T22:43:44.461Z,-5.01
2022-12-14T22:46:18.032Z,-5.01
2022-12-14T22:48:50.931Z,-5.01
2022-12-14T22:51:25.444Z,-4.99
2022-12-14T22:53:59.465Z,-4.92
2022-12-14T22:56:35.923Z,-4.93
2022-12-14T22:59:11.961Z,-4.91
2022-12-14T23:01:50.153Z,-4.90
2022-12-14T23:04:21.096Z,-4.89
2022-12-14T23:06:55.349Z,-4.90
2022-12-14T23:09:46.094Z,-4.82
2022-12-14T23:12:36.565Z,-4.76
2022-12-14T23:15:28.493Z,-4.72
2022-12-14T23:18:22.566Z,-4.70
2022-12-14T23:21:13.739Z,-4.68
2022-12-14T23:24:05.278Z,-4.69
2022-12-14T23:26:56.138Z,-4.65
2022-12-14T23:29:47.480Z,-4.69
2022-12-14T23:32:38.015Z,-4.75
2022-12-14T23:35:29.193Z,-4.80
2022-12-14T23:38:24.936Z,-4.85
2022-12-14T23:41:19.539Z,-4.93
2022-12-14T23:44:10.151Z,-5.03
2022-12-14T23:47:00.949Z,-5.08
2022-12-14T23:49:51.371Z,-5.12
2022-12-14T23:52:41.865Z,-5.16
2022-12-14T23:55:48.290Z,-5.19
2022-12-14T23:58:43.616Z,-5.20
